createdAt,value
2023-03-01T00:01:14.425Z,-1.00
2023-03-01T00:03:41.647Z,-1.00
2023-03-01T00:06:08.550Z,-1.00
2023-03-01T00:08:35.658Z,-1.00
2023-03-01T00:11:15.721Z,-1.00
2023-03-01T00:13:43.605Z,-1.00
2023-03-01T00:16:13.325Z,-1.00
2023-03-01T00:18:41.901Z,-1.00
2023-03-01T00:21:08.796Z,-1.00
2023-03-01T00:23:36.570Z,-1.00
2023-03-01T00:26:06.889Z,-1.00
2023-03-01T00:28:34.480Z,-1.00
2023-03-01T00:31:06.341Z,-1.00
2023-03-01T00:33:34.416Z,-1.00
2023-03-01T00:36:01.807Z,-1.00
2023-03-01T00:38:29.004Z,-1.00
2023-03-01T00:40:55.775Z,-1.00
2023-03-01T00:43:26.179Z,-1.00
2023-03-01T00:45:53.356Z,-1.00
2023-03-01T00:48:20.255Z,-1.00
2023-03-01T00:50:47.173Z,-1.00
2023-03-01T00:53:14.454Z,-1.00
2023-03-01T00:55:41.320Z,-1.00
2023-03-01T00:58:08.552Z,-1.00
2023-03-01T01:00:35.551Z,-1.00
2023-03-01T01:03:02.397Z,-1.00
2023-03-01T01:05:29.317Z,-1.00
2023-03-01T01:07:57.263Z,-1.00
2023-03-01T01:10:25.468Z,-1.00
2023-03-01T01:12:56.405Z,-1.00
2023-03-01T01:15:23.697Z,-1.00
2023-03-01T01:17:50.736Z,-1.00
2023-03-01T01:20:21.321Z,-1.00
2023-03-01T01:28:09.379Z,-1.00
2023-03-01T01:30:36.427Z,-1.00
2023-03-01T01:33:03.575Z,-1.00
2023-03-01T01:35:30.430Z,-1.00
2023-03-01T01:38:02.001Z,-1.00
2023-03-01T01:40:29.435Z,-1.00
2023-03-01T01:42:56.554Z,-1.00
2023-03-01T01:45:36.726Z,-1.00
2023-03-01T01:48:14.981Z,-1.00
2023-03-01T01:50:45.497Z,-1.00
2023-03-01T01:53:16.916Z,-1.00
2023-03-01T01:55:46.601Z,-1.00
2023-03-01T01:58:16.541Z,-1.00
2023-03-01T02:00:46.179Z,-1.00
2023-03-01T02:03:19.743Z,-1.00
2023-03-01T02:06:07.647Z,-1.00
2023-03-01T02:08:37.618Z,-1.00
2023-03-01T02:11:05.482Z,-1.00
2023-03-01T02:13:33.250Z,-1.00
2023-03-01T02:16:00.996Z,-1.00
2023-03-01T02:18:27.989Z,-1.00
2023-03-01T02:21:32.665Z,-1.00
2023-03-01T02:24:31.567Z,-1.00
2023-03-01T02:26:58.566Z,-1.00
2023-03-01T02:29:25.524Z,-1.00
2023-03-01T02:31:53.809Z,-1.00
2023-03-01T02:34:25.809Z,-1.00
2023-03-01T02:36:57.723Z,-1.00
2023-03-01T02:39:30.432Z,-1.00
2023-03-01T02:41:59.375Z,-1.00
2023-03-01T02:44:26.528Z,-1.00
2023-03-01T02:46:54.788Z,-1.00
2023-03-01T02:49:26.011Z,-1.00
2023-03-01T02:52:20.319Z,-1.00
2023-03-01T02:54:48.237Z,-1.00
2023-03-01T02:57:17.134Z,-1.00
2023-03-01T02:59:44.106Z,-1.00
2023-03-01T03:02:38.316Z,-1.00
2023-03-01T03:05:18.995Z,-1.00
2023-03-01T03:07:47.982Z,-1.00
2023-03-01T03:10:25.682Z,-1.00
2023-03-01T03:12:55.127Z,-1.00
2023-03-01T03:15:22.597Z,-1.00
2023-03-01T03:17:50.133Z,-1.00
2023-03-01T03:20:19.417Z,-1.00
2023-03-01T03:22:51.337Z,-1.00
2023-03-01T03:25:18.768Z,-1.00
2023-03-01T03:27:47.905Z,-1.00
2023-03-01T03:30:20.184Z,-1.00
2023-03-01T03:32:54.174Z,-1.00
2023-03-01T03:35:30.554Z,-1.00
2023-03-01T03:38:04.374Z,-1.00
2023-03-01T03:40:35.234Z,-1.00
2023-03-01T03:43:03.599Z,-1.00
2023-03-01T03:45:37.011Z,-1.00
2023-03-01T03:48:06.862Z,-1.00
2023-03-01T03:50:33.900Z,-1.00
2023-03-01T03:53:02.025Z,-1.00
2023-03-01T03:55:31.074Z,-1.00
2023-03-01T03:58:02.429Z,-1.00
2023-03-01T04:00:30.251Z,-1.00
2023-03-01T04:02:58.024Z,-1.00
2023-03-01T04:05:24.863Z,-1.00
2023-03-01T04:08:01.454Z,-1.00
2023-03-01T04:10:29.885Z,-1.00
2023-03-01T04:12:57.455Z,-1.00
2023-03-01T04:15:25.119Z,-1.00
2023-03-01T04:17:53.250Z,-1.00
2023-03-01T04:20:30.528Z,-1.00
2023-03-01T04:23:10.973Z,-1.00
2023-03-01T04:25:39.603Z,-1.00
2023-03-01T04:28:06.756Z,-1.00
2023-03-01T04:30:36.289Z,-1.00
2023-03-01T04:33:06.357Z,-1.00
2023-03-01T04:35:33.496Z,-1.00
2023-03-01T04:38:03.723Z,-1.00
2023-03-01T04:40:32.073Z,-1.00
2023-03-01T04:43:00.371Z,-1.00
2023-03-01T04:45:28.266Z,-1.00
2023-03-01T04:47:55.085Z,-1.00
2023-03-01T04:50:23.901Z,-1.00
2023-03-01T04:52:50.899Z,-1.00
2023-03-01T04:55:18.050Z,-1.00
2023-03-01T04:57:45.437Z,-1.00
2023-03-01T05:00:21.491Z,-1.00
2023-03-01T05:02:57.612Z,-1.00
2023-03-01T05:05:32.622Z,-1.00
2023-03-01T05:08:19.584Z,-1.00
2023-03-01T05:10:49.717Z,-1.00
2023-03-01T05:13:21.445Z,-1.00
2023-03-01T05:15:49.914Z,-1.00
2023-03-01T05:18:16.776Z,-1.00
2023-03-01T05:20:45.127Z,-1.00
2023-03-01T05:23:11.996Z,-1.00
2023-03-01T05:25:40.608Z,-1.00
2023-03-01T05:28:11.352Z,-1.00
2023-03-01T05:30:39.597Z,-1.00
2023-03-01T05:33:13.615Z,-1.00
2023-03-01T05:35:42.713Z,-1.00
2023-03-01T05:40:59.158Z,100071.36
2023-03-01T05:43:27.613Z,100060.92
2023-03-01T05:45:57.336Z,100055.54
2023-03-01T05:48:27.184Z,100060.30
2023-03-01T05:50:56.396Z,100064.17
2023-03-01T05:53:24.626Z,100054.96
2023-03-01T05:55:53.389Z,100054.15
2023-03-01T05:58:22.900Z,100051.94
2023-03-01T06:00:52.486Z,100050.94
2023-03-01T06:03:27.133Z,100054.40
2023-03-01T06:05:58.974Z,100059.77
2023-03-01T06:08:28.540Z,100061.00
2023-03-01T06:10:57.034Z,100059.28
2023-03-01T06:13:25.560Z,100063.45
2023-03-01T06:16:00.969Z,100072.25
2023-03-01T06:18:31.630Z,100074.64
2023-03-01T06:20:59.862Z,100071.40
2023-03-01T06:23:28.289Z,100066.46
2023-03-01T06:25:56.597Z,100070.63
2023-03-01T06:28:25.264Z,100070.66
2023-03-01T06:30:58.310Z,100065.20
2023-03-01T06:33:29.551Z,100070.94
2023-03-01T06:35:57.946Z,100072.53
2023-03-01T06:38:26.393Z,100075.95
2023-03-01T06:40:55.945Z,100074.83
2023-03-01T06:43:24.861Z,100072.36
2023-03-01T06:45:53.068Z,100073.91
2023-03-01T06:48:21.547Z,100078.57
2023-03-01T06:50:50.000Z,100078.98
2023-03-01T06:53:18.874Z,100084.93
2023-03-01T06:55:47.302Z,100079.16
2023-03-01T06:58:15.603Z,100075.73
2023-03-01T07:00:45.442Z,100075.29
2023-03-01T07:03:13.960Z,100067.89
2023-03-01T07:05:42.318Z,100072.89
2023-03-01T07:08:10.738Z,100073.00
2023-03-01T07:10:39.863Z,100071.67
2023-03-01T07:13:08.169Z,100071.16
2023-03-01T07:15:36.754Z,100080.86
2023-03-01T07:18:05.238Z,100079.05
2023-03-01T07:20:35.463Z,100078.17
2023-03-01T07:23:03.898Z,100075.43
2023-03-01T07:25:33.249Z,100072.44
2023-03-01T07:28:01.911Z,100074.98
2023-03-01T07:30:30.768Z,100072.84
2023-03-01T07:32:59.492Z,100071.33
2023-03-01T07:35:28.164Z,100067.09
2023-03-01T07:37:56.669Z,100069.83
2023-03-01T07:40:25.275Z,100070.27
2023-03-01T07:42:59.950Z,100062.52
2023-03-01T07:45:44.975Z,100062.24
2023-03-01T07:48:13.932Z,100060.43
2023-03-01T07:50:42.846Z,100059.52
2023-03-01T07:53:11.343Z,100055.98
2023-03-01T07:55:39.863Z,100053.99
2023-03-01T07:58:08.430Z,100058.12
2023-03-01T08:00:37.741Z,100050.92
2023-03-01T08:03:06.413Z,100058.80
2023-03-01T08:05:35.725Z,100053.33
2023-03-01T08:08:06.269Z,100054.85
2023-03-01T08:10:34.569Z,100056.46
2023-03-01T08:13:02.946Z,100054.17
2023-03-01T08:15:31.539Z,100059.95
2023-03-01T08:18:04.833Z,100056.14
2023-03-01T08:20:33.209Z,100059.98
2023-03-01T08:23:01.570Z,100066.19
2023-03-01T08:25:30.004Z,100062.79
2023-03-01T08:27:58.634Z,100068.37
2023-03-01T08:30:27.055Z,100068.32
2023-03-01T08:32:55.684Z,100071.56
2023-03-01T08:35:25.276Z,100072.08
2023-03-01T08:37:54.037Z,100074.89
2023-03-01T08:40:22.342Z,100079.08
2023-03-01T08:42:51.330Z,100075.96
2023-03-01T08:45:19.996Z,100078.35
2023-03-01T08:47:48.409Z,100075.38
2023-03-01T08:50:17.547Z,100067.31
2023-03-01T08:52:46.134Z,100064.91
2023-03-01T08:55:18.660Z,100061.03
2023-03-01T08:57:46.917Z,100053.63
2023-03-01T09:00:16.086Z,100050.20
2023-03-01T09:02:44.423Z,100054.77
2023-03-01T09:05:12.846Z,100050.94
2023-03-01T09:07:43.430Z,100054.96
2023-03-01T09:10:12.413Z,100052.40
2023-03-01T09:12:40.737Z,100052.55
2023-03-01T09:15:10.400Z,100056.23
2023-03-01T09:17:39.858Z,100051.87
2023-03-01T09:20:11.844Z,100055.25
2023-03-01T09:22:42.278Z,100057.38
2023-03-01T09:25:10.895Z,100061.59
2023-03-01T09:27:39.162Z,100058.20
2023-03-01T09:30:09.048Z,100060.56
2023-03-01T09:32:38.154Z,100063.60
2023-03-01T09:35:07.130Z,100062.58
2023-03-01T09:37:36.027Z,100059.83
2023-03-01T09:40:06.424Z,100066.44
2023-03-01T09:42:35.614Z,100062.82
2023-03-01T09:45:25.250Z,100053.59
2023-03-01T09:47:53.886Z,100056.11
2023-03-01T09:50:22.542Z,100059.00
2023-03-01T09:53:12.280Z,100062.35
2023-03-01T09:56:06.624Z,100061.60
2023-03-01T09:59:02.601Z,100057.40
2023-03-01T10:01:50.438Z,100060.78
2023-03-01T10:04:37.823Z,100060.17
2023-03-01T10:07:13.697Z,100060.90
2023-03-01T10:09:44.284Z,100063.40
2023-03-01T10:12:20.804Z,100064.12
2023-03-01T10:15:11.891Z,100059.75
2023-03-01T10:17:44.962Z,100059.00
2023-03-01T10:20:24.909Z,100056.17
2023-03-01T10:22:56.281Z,100055.60
2023-03-01T10:25:54.534Z,100051.34
2023-03-01T10:28:25.791Z,100057.87
2023-03-01T10:30:54.139Z,100056.66
2023-03-01T10:33:27.570Z,100061.98
2023-03-01T10:35:56.643Z,100059.33
2023-03-01T10:38:26.226Z,100058.81
2023-03-01T10:41:00.574Z,100054.09
2023-03-01T10:43:44.468Z,100054.52
2023-03-01T10:46:36.109Z,100053.69
2023-03-01T10:49:20.756Z,100049.95
2023-03-01T10:51:51.403Z,100046.40
2023-03-01T10:54:23.482Z,100046.15
2023-03-01T10:57:02.472Z,100046.42
2023-03-01T10:59:34.850Z,100041.45
2023-03-01T11:02:35.215Z,100043.80
2023-03-01T11:05:14.488Z,100043.04
2023-03-01T11:07:53.872Z,100041.58
2023-03-01T11:10:36.862Z,100045.34
2023-03-01T11:13:10.701Z,100047.71
2023-03-01T11:15:40.577Z,100039.71
2023-03-01T11:18:20.806Z,100038.39
2023-03-01T11:20:49.384Z,100039.80
2023-03-01T11:23:19.778Z,100042.10
2023-03-01T11:25:56.244Z,100040.90
2023-03-01T11:28:26.029Z,100044.96
2023-03-01T11:31:09.300Z,100048.14
2023-03-01T11:33:58.504Z,100040.53
2023-03-01T11:36:43.135Z,100045.27
2023-03-01T11:39:22.853Z,100046.10
2023-03-01T11:41:53.580Z,100039.29
2023-03-01T11:44:29.430Z,100041.23
2023-03-01T11:47:20.723Z,100037.24
2023-03-01T11:50:21.643Z,100033.69
2023-03-01T11:53:02.289Z,100037.54
2023-03-01T11:55:56.735Z,100033.44
2023-03-01T11:58:40.491Z,100037.48
2023-03-01T12:01:21.806Z,100038.07
2023-03-01T12:04:13.347Z,100041.48
2023-03-01T12:07:01.427Z,100039.05
2023-03-01T12:09:51.163Z,100033.81
2023-03-01T12:12:22.348Z,100039.20
2023-03-01T12:14:56.832Z,100036.67
2023-03-01T12:17:40.403Z,100034.80
2023-03-01T12:20:24.279Z,100037.77
2023-03-01T12:23:20.934Z,100041.98
2023-03-01T12:26:22.127Z,100049.17
2023-03-01T12:28:58.526Z,100049.02
2023-03-01T12:31:47.606Z,100050.63
2023-03-01T12:34:22.916Z,100047.50
2023-03-01T12:36:54.672Z,100051.49
2023-03-01T12:39:28.375Z,100053.27
2023-03-01T12:42:13.487Z,100058.20
2023-03-01T12:44:55.139Z,100057.02
2023-03-01T12:47:46.437Z,100055.58
2023-03-01T12:50:31.109Z,100059.19
2023-03-01T12:52:59.574Z,100056.28
2023-03-01T12:55:33.004Z,100057.67
2023-03-01T12:58:37.093Z,100057.52
2023-03-01T13:01:24.549Z,100051.90
2023-03-01T13:04:12.405Z,100057.64
2023-03-01T13:06:59.815Z,100054.00
2023-03-01T13:09:52.669Z,100053.53
2023-03-01T13:12:59.037Z,100052.61
2023-03-01T13:15:29.572Z,100047.52
2023-03-01T13:18:20.495Z,100050.76
2023-03-01T13:20:50.788Z,100049.17
2023-03-01T13:23:22.799Z,100050.29
2023-03-01T13:26:00.110Z,100051.56
2023-03-01T13:28:48.900Z,100056.02
2023-03-01T13:31:17.323Z,100057.92
2023-03-01T13:33:50.965Z,100062.43
2023-03-01T13:36:28.694Z,100059.24
2023-03-01T13:38:58.602Z,100056.80
2023-03-01T13:41:42.560Z,100055.79
2023-03-01T13:44:33.188Z,100057.84
2023-03-01T13:47:15.087Z,100057.48
2023-03-01T13:50:03.903Z,100057.11
2023-03-01T13:52:44.864Z,100058.16
2023-03-01T13:55:17.838Z,100060.12
2023-03-01T13:57:54.910Z,100056.27
2023-03-01T14:00:27.789Z,100055.59
2023-03-01T14:03:30.865Z,100054.77
2023-03-01T14:06:17.345Z,100052.91
2023-03-01T14:08:48.008Z,100053.65
2023-03-01T14:11:34.915Z,100055.03
2023-03-01T14:14:15.397Z,100053.02
2023-03-01T14:17:07.755Z,100057.72
2023-03-01T14:19:36.175Z,100056.13
2023-03-01T14:22:23.532Z,100055.55
2023-03-01T14:25:01.819Z,100050.04
2023-03-01T14:27:43.297Z,100049.02
2023-03-01T14:30:19.025Z,100049.77
2023-03-01T14:32:57.777Z,100048.61
2023-03-01T14:35:28.978Z,100043.77
2023-03-01T14:37:57.769Z,100047.31
2023-03-01T14:40:31.395Z,100046.35
2023-03-01T14:43:00.777Z,100044.74
2023-03-01T14:45:30.365Z,100038.08
2023-03-01T14:48:03.323Z,100038.59
2023-03-01T14:50:33.228Z,100038.17
2023-03-01T14:53:06.270Z,100040.91
2023-03-01T14:55:38.189Z,100045.34
2023-03-01T14:58:07.634Z,100046.02
2023-03-01T15:00:36.742Z,100046.80
2023-03-01T15:03:14.561Z,100047.39
2023-03-01T15:05:44.229Z,100054.41
2023-03-01T15:08:21.710Z,100049.86
2023-03-01T15:11:00.692Z,100059.35
2023-03-01T15:13:34.083Z,100055.60
2023-03-01T15:16:06.491Z,100058.95
2023-03-01T15:18:36.370Z,100060.11
2023-03-01T15:21:19.917Z,100060.97
2023-03-01T15:23:56.444Z,100059.16
2023-03-01T15:26:30.820Z,100061.33
2023-03-01T15:29:00.146Z,100063.82
2023-03-01T15:31:31.124Z,100067.55
2023-03-01T15:34:09.953Z,100069.67
2023-03-01T15:36:45.531Z,100069.77
2023-03-01T15:39:38.691Z,100067.80
2023-03-01T15:42:10.173Z,100069.85
2023-03-01T15:44:44.176Z,100064.35
2023-03-01T15:47:30.206Z,100065.56
2023-03-01T15:49:59.373Z,100063.85
2023-03-01T15:52:36.191Z,100060.51
2023-03-01T15:55:07.114Z,100062.27
2023-03-01T15:57:36.286Z,100065.65
2023-03-01T16:00:12.514Z,100064.68
2023-03-01T16:02:41.966Z,100067.25
2023-03-01T16:05:24.373Z,100065.98
2023-03-01T16:07:53.212Z,100070.27
2023-03-01T16:10:23.488Z,100073.10
2023-03-01T16:12:54.550Z,100070.46
2023-03-01T16:15:26.340Z,100075.71
2023-03-01T16:17:55.104Z,100072.79
2023-03-01T16:20:28.684Z,100080.44
2023-03-01T16:23:03.335Z,100079.89
2023-03-01T16:25:33.800Z,100082.05
2023-03-01T16:28:10.273Z,100080.64
2023-03-01T16:30:40.905Z,100084.42
2023-03-01T16:33:28.335Z,100082.05
2023-03-01T16:36:01.259Z,100079.63
2023-03-01T16:38:32.124Z,100086.05
2023-03-01T16:41:00.592Z,100086.55
2023-03-01T16:43:30.977Z,100090.88
2023-03-01T16:46:00.665Z,100091.81
2023-03-01T16:48:29.194Z,100090.70
2023-03-01T16:51:00.561Z,100090.89
2023-03-01T16:53:47.911Z,100090.23
2023-03-01T16:56:18.849Z,100088.65
2023-03-01T16:58:48.440Z,100085.20
2023-03-01T17:01:18.630Z,100085.40
2023-03-01T17:03:47.675Z,100084.53
2023-03-01T17:06:17.997Z,100087.20
2023-03-01T17:08:48.076Z,100086.45
2023-03-01T17:11:18.226Z,100089.20
2023-03-01T17:13:56.620Z,100085.07
2023-03-01T17:16:25.554Z,100084.02
2023-03-01T17:18:53.990Z,100085.54
2023-03-01T17:21:22.655Z,100084.46
2023-03-01T17:23:52.305Z,100082.98
2023-03-01T17:26:21.005Z,100082.15
2023-03-01T17:28:52.841Z,100085.86
2023-03-01T17:31:21.632Z,100086.64
2023-03-01T17:33:50.591Z,100081.98
2023-03-01T17:36:19.268Z,100081.59
2023-03-01T17:38:50.047Z,100080.54
2023-03-01T17:41:19.606Z,100082.01
2023-03-01T17:43:49.653Z,100078.54
2023-03-01T17:46:18.124Z,100079.49
2023-03-01T17:48:49.896Z,100084.58
2023-03-01T17:51:38.592Z,100081.40
2023-03-01T17:54:06.974Z,100083.00
2023-03-01T17:57:15.829Z,100083.02
2023-03-01T17:59:44.530Z,100068.21
2023-03-01T18:02:13.594Z,100067.40
2023-03-01T18:04:42.435Z,100067.61
2023-03-01T18:07:11.213Z,100069.19
2023-03-01T18:09:39.686Z,100075.37
2023-03-01T18:12:08.740Z,100076.15
2023-03-01T18:14:37.911Z,100080.46
2023-03-01T18:17:12.089Z,100084.13
2023-03-01T18:19:46.435Z,100090.56
2023-03-01T18:22:15.861Z,100099.94
2023-03-01T18:24:47.547Z,100098.02
2023-03-01T18:27:15.947Z,100101.78
2023-03-01T18:29:44.610Z,100105.95
2023-03-01T18:32:13.129Z,100105.60
2023-03-01T18:34:41.884Z,100105.64
2023-03-01T18:37:10.985Z,100109.45
2023-03-01T18:39:39.371Z,100112.65
2023-03-01T18:42:08.312Z,100117.41
2023-03-01T18:44:36.763Z,100120.71
2023-03-01T18:47:05.514Z,100123.11
2023-03-01T18:49:34.986Z,100122.91
2023-03-01T18:52:04.287Z,100118.13
2023-03-01T18:54:32.674Z,100119.17
2023-03-01T18:57:01.170Z,100123.53
2023-03-01T18:59:32.618Z,100127.55
2023-03-01T19:02:01.360Z,100131.77
2023-03-01T19:04:30.315Z,100129.20
2023-03-01T19:07:02.329Z,100132.14
2023-03-01T19:09:36.429Z,100131.17
2023-03-01T19:12:06.500Z,100129.31
2023-03-01T19:14:35.293Z,100133.21
2023-03-01T19:17:05.046Z,100138.12
2023-03-01T19:19:33.590Z,100142.06
2023-03-01T19:22:05.929Z,100143.58
2023-03-01T19:24:36.680Z,100145.59
2023-03-01T19:27:06.142Z,100143.73
2023-03-01T19:29:36.156Z,100151.27
2023-03-01T19:32:04.619Z,100155.59
2023-03-01T19:34:33.415Z,100156.79
2023-03-01T19:37:02.483Z,100160.70
2023-03-01T19:39:30.957Z,100158.77
2023-03-01T19:41:59.125Z,100165.59
2023-03-01T19:44:31.678Z,100164.71
2023-03-01T19:47:01.234Z,100164.35
2023-03-01T19:49:30.369Z,100167.59
2023-03-01T19:52:04.249Z,100165.73
2023-03-01T19:54:33.089Z,100168.00
2023-03-01T19:57:01.805Z,100168.49
2023-03-01T19:59:30.271Z,100165.63
2023-03-01T20:01:59.151Z,100170.08
2023-03-01T20:04:27.474Z,100168.02
2023-03-01T20:07:01.523Z,100170.20
2023-03-01T20:09:30.413Z,100171.00
2023-03-01T20:11:58.639Z,100174.38
2023-03-01T20:14:27.625Z,100173.31
2023-03-01T20:16:56.873Z,100173.46
2023-03-01T20:19:25.289Z,100168.48
2023-03-01T20:21:54.053Z,100171.38
2023-03-01T20:24:24.974Z,100162.08
2023-03-01T20:26:53.689Z,100158.64
2023-03-01T20:29:22.224Z,100157.59
2023-03-01T20:31:50.782Z,100160.68
2023-03-01T20:34:19.246Z,100160.60
2023-03-01T20:36:47.698Z,100159.60
2023-03-01T20:39:18.980Z,100158.65
2023-03-01T20:41:47.538Z,100160.71
2023-03-01T20:44:18.219Z,100161.52
2023-03-01T20:46:47.226Z,100158.80
2023-03-01T20:49:15.693Z,100157.61
2023-03-01T20:51:44.600Z,100155.70
2023-03-01T20:54:14.458Z,100155.73
2023-03-01T20:56:43.582Z,100154.52
2023-03-01T20:59:12.289Z,100153.90
2023-03-01T21:01:41.921Z,100148.86
2023-03-01T21:04:10.253Z,100146.20
2023-03-01T21:06:40.031Z,100151.19
2023-03-01T21:09:08.707Z,100148.39
2023-03-01T21:11:41.281Z,100143.42
2023-03-01T21:14:10.003Z,100139.96
2023-03-01T21:16:38.438Z,100138.21
2023-03-01T21:19:12.056Z,100138.20
2023-03-01T21:21:41.556Z,100139.38
2023-03-01T21:24:10.752Z,100137.80
2023-03-01T21:26:39.554Z,100135.08
2023-03-01T21:29:08.016Z,100133.35
2023-03-01T21:31:38.943Z,100136.52
2023-03-01T21:34:07.727Z,100139.46
2023-03-01T21:36:39.088Z,100142.08
2023-03-01T21:39:07.654Z,100145.66
2023-03-01T21:41:37.068Z,100147.04
2023-03-01T21:44:07.444Z,100151.33
2023-03-01T21:46:38.060Z,100145.09
2023-03-01T21:49:07.408Z,100147.27
2023-03-01T21:51:36.743Z,100144.18
2023-03-01T21:54:07.953Z,100148.29
2023-03-01T21:56:39.368Z,100150.58
2023-03-01T21:59:09.442Z,100150.33
2023-03-01T22:01:37.832Z,100154.25
2023-03-01T22:04:06.565Z,100151.54
2023-03-01T22:06:43.725Z,100148.23
2023-03-01T22:09:12.052Z,100144.20
2023-03-01T22:11:47.640Z,100139.92
2023-03-01T22:14:18.202Z,100138.84
2023-03-01T22:16:47.956Z,100138.61
2023-03-01T22:19:16.719Z,100139.41
2023-03-01T22:21:49.334Z,100136.70
2023-03-01T22:24:19.259Z,100134.46
2023-03-01T22:26:48.074Z,100137.67
2023-03-01T22:29:26.557Z,100140.88
2023-03-01T22:31:55.637Z,100135.05
2023-03-01T22:34:24.068Z,100139.84
2023-03-01T22:36:53.366Z,100140.58
2023-03-01T22:39:21.779Z,100138.88
2023-03-01T22:41:51.477Z,100143.24
2023-03-01T22:44:21.821Z,100145.96
2023-03-01T22:46:52.231Z,100144.16
2023-03-01T22:49:20.757Z,100144.13
2023-03-01T22:51:49.368Z,100145.20
2023-03-01T22:54:17.873Z,100142.33
2023-03-01T22:56:49.734Z,100142.25
2023-03-01T22:59:19.214Z,100140.11
2023-03-01T23:01:48.387Z,100141.90
2023-03-01T23:04:18.518Z,100143.19
2023-03-01T23:06:56.339Z,100146.41
2023-03-01T23:09:30.948Z,100149.14
2023-03-01T23:12:01.768Z,100148.54
2023-03-01T23:14:31.529Z,100152.05
2023-03-01T23:17:01.903Z,100145.43
2023-03-01T23:19:30.888Z,100146.62
2023-03-01T23:21:59.367Z,100138.20
2023-03-01T23:24:31.989Z,100137.55
2023-03-01T23:27:01.111Z,100135.00
2023-03-01T23:29:30.231Z,100134.46
2023-03-01T23:31:59.026Z,100143.05
2023-03-01T23:34:28.106Z,100140.26
2023-03-01T23:36:58.118Z,100141.16
2023-03-01T23:39:26.539Z,100140.72
2023-03-01T23:41:54.868Z,100138.08
2023-03-01T23:44:25.682Z,100144.13
2023-03-01T23:46:54.376Z,100144.27
2023-03-01T23:49:23.434Z,100141.85
2023-03-01T23:51:52.204Z,100138.81
2023-03-01T23:54:22.513Z,100136.94
2023-03-01T23:56:50.762Z,100137.35
2023-03-01T23:59:22.183Z,100136.08
